createdAt,value
2022-11-13T08:44:47.303Z,11.18
2022-11-13T08:55:03.204Z,11.32
2022-11-13T09:05:19.385Z,8.02
2022-11-13T09:15:38.835Z,8.45
2022-11-13T09:25:55.088Z,8.55
2022-11-13T09:36:13.210Z,9.70
2022-11-13T09:46:51.549Z,11.52
2022-11-13T09:57:42.962Z,8.13
2022-11-13T10:08:01.461Z,8.55
2022-11-13T10:18:24.160Z,10.63
2022-11-13T10:28:49.913Z,11.57
2022-11-13T10:39:09.154Z,10.18
2022-11-13T10:59:45.628Z,4.07
2022-11-13T11:10:01.333Z,3.78
2022-11-13T11:20:23.390Z,3.45
2022-11-13T11:30:50.704Z,4.95
2022-11-13T11:41:16.602Z,3.25
2022-11-13T11:51:49.233Z,4.63
2022-11-13T12:02:33.082Z,3.75
2022-11-13T12:13:04.265Z,6.10
2022-11-13T12:23:23.077Z,9.45
2022-11-13T12:34:01.069Z,7.57
2022-11-13T12:44:23.629Z,5.97
2022-11-13T12:54:39.327Z,6.03
2022-11-13T13:05:10.693Z,3.95
2022-11-13T13:15:37.720Z,3.70
2022-11-13T13:26:19.594Z,2.78
2022-11-13T13:36:41.271Z,4.80
2022-11-13T13:46:58.088Z,2.63
2022-11-13T13:57:16.330Z,4.95
2022-11-13T14:17:49.885Z,3.28
2022-11-13T14:28:05.693Z,2.47
2022-11-13T14:38:27.604Z,3.35
2022-11-13T14:48:54.555Z,5.20
2022-11-13T14:59:19.391Z,4.30
2022-11-13T15:09:35.566Z,5.63
2022-11-13T15:19:55.123Z,6.43
2022-11-13T15:30:11.291Z,4.07
2022-11-13T15:40:27.081Z,6.88
2022-11-13T15:50:42.907Z,6.80
2022-11-13T16:00:58.347Z,6.32
2022-11-13T16:11:19.403Z,8.10
2022-11-13T16:21:35.011Z,7.07
2022-11-13T16:31:51.016Z,16.17
2022-11-13T16:42:06.787Z,10.85
2022-11-13T16:52:22.629Z,6.85
2022-11-13T17:02:39.287Z,6.30
2022-11-13T17:12:55.451Z,7.55
2022-11-13T17:23:16.130Z,9.35
2022-11-13T17:33:32.751Z,14.32
2022-11-13T17:43:48.473Z,14.15
2022-11-13T17:54:04.376Z,14.77
2022-11-13T18:04:19.839Z,9.82
2022-11-13T18:14:35.663Z,31.80
2022-11-13T18:24:51.668Z,36.03
2022-11-13T18:35:08.076Z,71.15
2022-11-13T18:45:24.024Z,39.88
2022-11-13T18:55:39.867Z,26.42
2022-11-13T19:05:55.772Z,15.07
2022-11-13T19:16:35.731Z,22.73
2022-11-13T19:26:51.839Z,9.93
2022-11-13T19:37:07.760Z,12.43
2022-11-13T19:47:23.591Z,17.30
2022-11-13T19:57:44.934Z,10.48
2022-11-13T20:08:01.795Z,14.80
2022-11-13T20:18:17.743Z,12.18
2022-11-13T20:28:33.930Z,17.52
2022-11-13T20:38:54.891Z,18.20
2022-11-13T20:49:10.595Z,16.95
2022-11-13T20:59:26.523Z,12.90
2022-11-13T21:09:45.981Z,12.93
2022-11-13T21:20:06.076Z,14.45
2022-11-13T21:30:22.766Z,20.50
2022-11-13T21:40:38.793Z,12.65
2022-11-13T21:50:54.943Z,23.50
2022-11-13T22:01:12.279Z,19.33
2022-11-13T22:11:31.498Z,14.73
2022-11-13T22:21:47.742Z,15.95
2022-11-13T22:32:03.808Z,13.15
2022-11-13T22:42:19.948Z,20.10
2022-11-13T22:52:35.497Z,19.90
2022-11-13T23:02:51.287Z,26.60
2022-11-13T23:13:07.319Z,20.73
2022-11-13T23:23:23.180Z,29.33
2022-11-13T23:33:40.384Z,27.88
2022-11-13T23:44:11.286Z,27.80
2022-11-13T23:54:27.092Z,26.20
